Aérodrome :
LOGIN :

S'inscrire | Disclaimer

   EN    FR    IT 

 










Légende :    VFR   VFR Marginal   IFR   IFR Intensif   IFR Très Intensif
Visi : 
Plafond : 
>= 8 km
>= 3000ft
5 à 8 km
1000 à 3000 ft
1500m à 5 km
500 à 1000 ft
800 à 1500m
200 à 500 ft
< 800m
< 200 ft
Symboles :   Orages  Brouillard  Fortes neiges  Fortes précipitations  Vent > 20 kt
SIGMETs :   Divers  Orages  Givrage  Turbulence  Onde Orograph.  Cendres Volcan.







- Altitude de l'aérodrome : 200 ft


EBBL - Klein Brogel AB

DERNIER METAR :
  • 231525Z 24026G38KT 9999 SCT044 10/02 Q0991 BLU

METARs EXPIRÉS :
  • 231518Z 24025G37KT 9999 SCT043 11/03 Q0991 BLU FCST CANCEL
  • 231503Z 24024G41KT 9999 SCT040 11/03 Q0991 BLU BLU TEMPO WHT
  • 231455Z 24021KT 9999 SCT040 11/03 Q0991 BLU BLU TEMPO WHT
  • 231425Z 23022G37KT 9999 FEW035 11/04 Q0991 BLU BLU
  • 231355Z 24025G37KT 9999 FEW025 11/05 Q0992 BLU BLU
  • 231325Z 22020KT 9999 FEW015 SCT025 10/08 Q0992 BLU BLU
  • 231314Z 23024G42KT 9999 FEW014 SCT020 09/07 Q0993 WHT WHT BECMG BLU
  • 231310Z 23022G42KT 9999 -SHRA SCT012 BKN020 09/07 Q0993 GRN GRN BECMG WHT
  • 231255Z 22022KT 3000 SHRA SCT014 BKN020 09/07 Q0993 YLO GRN BECMG WHT

TAF TAF EBBL
Valide du 23 à 13h jusqu'au 23 à 22h UTC


231153Z 2313/2322 23020G30KT 4000 DZ -RA -SH SCT010 BKN015
PROB40
TEMPO 2313/2317 26035G50KT
BECMG 2315/2317 SCT020
TEMPO 2315/2320 -SHRA SCT015 BKN020
BECMG 2318/2320 25015G25KT
Pas de NOTAMs connus pour ce terrain.
2 SIGMETs publiés pour la FIR Brussels (EBBU) :
 
Turbulence forte
EBBU SIGMET 04 VALID 231600/232000 EBBR
EBBU BRUSSELS FIR SEV TURB FCST ENTIRE FIR SFC/FL050 MOV E 25KT NC=
Turbulence forte
EBBU SIGMET 03 VALID 231200/231600 EBBR
EBBU BRUSSELS FIR SEV TURB FCST ENTIRE FIR SFC/FL050 MOV E 25KT NC=



MET'MAP, la Météo Aéronautique d'un coup d'oeil ! - Copyright ORBIFLY Décembre 2007 - Disclaimer

ORBIFLY MET'MAP TEAM :

Programmation & Développement : Alexandra Zaïnal
Conception & Développement : Baudouin d'Aumeries
Co-Programmation & Développement : Marc-Olivier Méhu
Soutien technique & logistique : Manuel Goepfert

Contact : metmap@orbifly.com




SOURCES & CREDITS :

   NOAA